Venango Regional Airport Franklin US
ICAO: KFKL
IATA: FKL
Category: Medium
Scheduled Services: No

Elevation: 1540 ft
TransAlt. 18000 ft.

Airport Communications:
YOUNGSTOWN APP/DEP:133.95
AWOS 3:118.175
CLNC DEL:126.25
ALTOONA RDO:109.6
CTAF/UNICOM:122.7

KFKL Zoom In..

If you have problems with the map follow the link
https://www.worldairports.se/pages/airport.php?
ICAO=KFKL

Runways:

(A) RW 03 length 5200 ft width 150 ft
---- / hdg 27

(B) RW 12 length 3593 ft width 100 ft
---- / hdg 116

(C) RW 21 length 5200 ft width 150 ft
ILS 110.50 / hdg 207

(D) RW 30 length 3593 ft width 100 ft
---- / hdg 296

Location; KFKL
Day. 21 / Time. 17.56 Zulu
* Altimeter: 30.19
* Temperature: 02° c. 35.6°f.
* Wind from: 300° Speed 07 kn.
Dewpoint: 01° c.
Visibility: 10 Statute Miles.
Clouds: Few 900 ft.
Clouds: Scattered 1200 ft.
Clouds: Overcast 2700 ft.

KFKL 211756Z AUTO 30007KT 10SM FEW009 SCT012 OVC027 02/01 A3019 RMK AO2 RAE51 SLP240 P0000 60000 T00220006 10028 20006 58002 FZRANO


Wind From 300°
Speed 07 kn.

 
 
jpsmedia.com for Web Design worldairports.se 2018   terms of use